createdAt,value
2022-08-29T00:00:31.729Z,58.60
2022-08-29T00:03:00.354Z,58.60
2022-08-29T00:05:32.227Z,58.70
2022-08-29T00:08:01.393Z,58.60
2022-08-29T00:10:30.336Z,58.70
2022-08-29T00:12:57.827Z,58.70
2022-08-29T00:15:25.413Z,58.70
2022-08-29T00:17:52.426Z,58.70
2022-08-29T00:20:26.194Z,58.70
2022-08-29T00:23:02.849Z,58.70
2022-08-29T00:25:29.760Z,58.70
2022-08-29T00:27:56.965Z,58.70
2022-08-29T00:30:24.315Z,58.70
2022-08-29T00:32:52.841Z,58.70
2022-08-29T00:35:27.058Z,58.80
2022-08-29T00:37:55.070Z,58.80
2022-08-29T00:40:35.055Z,58.70
2022-08-29T00:43:02.109Z,58.70
2022-08-29T00:45:29.661Z,58.60
2022-08-29T00:48:06.011Z,58.50
2022-08-29T00:50:40.908Z,58.50
2022-08-29T00:53:12.167Z,58.50
2022-08-29T00:55:40.631Z,58.60
2022-08-29T00:58:21.330Z,58.60
2022-08-29T01:00:49.410Z,58.60
2022-08-29T01:03:16.356Z,58.70
2022-08-29T01:05:43.433Z,58.70
2022-08-29T01:08:10.409Z,58.80
2022-08-29T01:10:55.951Z,58.70
2022-08-29T01:13:25.831Z,58.70
2022-08-29T01:15:53.989Z,58.60
2022-08-29T01:18:23.055Z,58.50
2022-08-29T01:21:21.549Z,58.50
2022-08-29T01:24:06.538Z,58.60
2022-08-29T01:26:37.094Z,58.50
2022-08-29T01:29:04.059Z,58.40
2022-08-29T01:31:57.019Z,58.40
2022-08-29T01:34:27.261Z,58.60
2022-08-29T01:37:04.673Z,58.50
2022-08-29T01:39:35.494Z,58.60
2022-08-29T01:42:06.350Z,58.60
2022-08-29T01:44:33.590Z,58.60
2022-08-29T01:47:03.285Z,58.60
2022-08-29T01:49:32.972Z,58.60
2022-08-29T01:52:00.064Z,58.60
2022-08-29T01:54:28.194Z,58.60
2022-08-29T01:56:55.274Z,58.60
2022-08-29T01:59:27.291Z,58.50
2022-08-29T02:02:03.217Z,58.50
2022-08-29T02:04:30.473Z,58.50
2022-08-29T02:06:58.157Z,58.50
2022-08-29T02:09:26.453Z,58.50
2022-08-29T02:11:54.477Z,58.50
2022-08-29T02:14:21.982Z,58.50
2022-08-29T02:16:49.111Z,58.50
2022-08-29T02:19:16.854Z,58.40
2022-08-29T02:21:44.493Z,58.50
2022-08-29T02:24:25.005Z,58.40
2022-08-29T02:26:54.611Z,58.40
2022-08-29T02:29:21.591Z,58.40
2022-08-29T02:31:48.778Z,58.40
2022-08-29T02:34:16.238Z,58.30
2022-08-29T02:36:44.539Z,59.00
2022-08-29T02:39:12.398Z,58.30
2022-08-29T02:41:39.477Z,58.20
2022-08-29T02:44:11.399Z,58.40
2022-08-29T02:46:38.668Z,58.40
2022-08-29T02:49:06.069Z,58.40
2022-08-29T02:51:33.880Z,58.40
2022-08-29T02:54:01.634Z,58.40
2022-08-29T02:56:30.187Z,58.30
2022-08-29T02:58:57.882Z,58.30
2022-08-29T03:01:25.046Z,58.40
2022-08-29T03:03:52.603Z,58.50
2022-08-29T03:06:20.230Z,58.40
2022-08-29T03:08:47.157Z,58.30
2022-08-29T03:11:14.158Z,58.40
2022-08-29T03:13:46.260Z,58.30
2022-08-29T03:16:13.943Z,58.40
2022-08-29T03:18:41.427Z,58.30
2022-08-29T03:21:20.460Z,58.40
2022-08-29T03:23:49.644Z,58.30
2022-08-29T03:26:17.638Z,58.20
2022-08-29T03:28:44.925Z,58.30
2022-08-29T03:31:11.847Z,58.40
2022-08-29T03:33:39.158Z,58.50
2022-08-29T03:36:13.749Z,58.50
2022-08-29T03:38:42.658Z,58.50
2022-08-29T03:41:09.993Z,58.40
2022-08-29T03:43:36.990Z,58.50
2022-08-29T03:46:04.345Z,58.40
2022-08-29T03:48:33.376Z,58.30
2022-08-29T03:51:00.594Z,58.30
2022-08-29T03:53:27.451Z,58.40
2022-08-29T03:55:54.752Z,58.30
2022-08-29T03:58:21.673Z,58.40
2022-08-29T04:00:48.680Z,58.40
2022-08-29T04:03:15.585Z,58.40
2022-08-29T04:05:42.993Z,58.30
2022-08-29T04:08:10.062Z,58.30
2022-08-29T04:10:38.791Z,58.30
2022-08-29T04:13:07.049Z,58.40
2022-08-29T04:15:34.661Z,58.30
2022-08-29T04:18:06.853Z,58.20
2022-08-29T04:20:37.920Z,58.20
2022-08-29T04:23:06.429Z,58.20
2022-08-29T04:25:37.634Z,58.10
2022-08-29T04:28:07.614Z,58.20
2022-08-29T04:30:35.941Z,58.20
2022-08-29T04:33:03.022Z,58.30
2022-08-29T04:35:30.179Z,58.30
2022-08-29T04:37:57.395Z,58.40
2022-08-29T04:40:24.303Z,58.40
2022-08-29T04:42:51.355Z,58.50
2022-08-29T04:45:22.267Z,58.50
2022-08-29T04:47:49.162Z,58.50
2022-08-29T04:50:20.602Z,58.70
2022-08-29T04:52:55.168Z,58.70
2022-08-29T04:55:25.763Z,58.80
2022-08-29T04:57:58.858Z,58.90
2022-08-29T05:00:30.662Z,58.90
2022-08-29T05:03:01.411Z,58.90
2022-08-29T05:05:28.806Z,59.00
2022-08-29T05:07:55.860Z,59.20
2022-08-29T05:10:23.252Z,59.20
2022-08-29T05:12:50.333Z,59.30
2022-08-29T05:15:17.629Z,59.40
2022-08-29T05:17:44.877Z,59.40
2022-08-29T05:20:12.987Z,59.50
2022-08-29T05:22:42.095Z,59.60
2022-08-29T05:25:14.413Z,59.70
2022-08-29T05:27:44.401Z,59.70
2022-08-29T05:30:11.647Z,59.80
2022-08-29T05:32:39.181Z,59.30
2022-08-29T05:35:06.343Z,59.00
2022-08-29T05:37:35.331Z,58.90
2022-08-29T05:40:04.384Z,58.60
2022-08-29T05:42:31.597Z,58.50
2022-08-29T05:44:58.518Z,58.40
2022-08-29T05:47:25.608Z,58.30
2022-08-29T05:49:52.554Z,58.00
2022-08-29T05:52:21.091Z,57.60
2022-08-29T05:54:48.300Z,57.60
2022-08-29T05:57:19.868Z,57.50
2022-08-29T05:59:48.514Z,57.50
2022-08-29T06:02:15.909Z,57.30
2022-08-29T06:04:43.133Z,57.40
2022-08-29T06:07:11.023Z,57.30
2022-08-29T06:09:45.494Z,57.30
2022-08-29T06:12:14.070Z,56.40
2022-08-29T06:14:41.793Z,56.50
2022-08-29T06:17:17.225Z,56.30
2022-08-29T06:19:44.145Z,56.50
2022-08-29T06:22:11.520Z,56.60
2022-08-29T06:24:39.746Z,56.50
2022-08-29T06:27:06.989Z,56.10
2022-08-29T06:29:34.566Z,56.50
2022-08-29T06:32:10.415Z,57.00
2022-08-29T06:34:37.233Z,56.20
2022-08-29T06:37:04.453Z,56.20
2022-08-29T06:39:31.385Z,56.20
2022-08-29T06:41:58.330Z,56.20
2022-08-29T06:44:26.645Z,56.20
2022-08-29T06:46:58.757Z,56.60
2022-08-29T06:49:27.621Z,56.10
2022-08-29T06:51:58.054Z,56.40
2022-08-29T06:54:28.038Z,56.60
2022-08-29T06:56:56.023Z,55.20
2022-08-29T06:59:22.919Z,55.70
2022-08-29T07:01:49.827Z,55.30
2022-08-29T07:04:16.894Z,53.40
2022-08-29T07:06:48.503Z,52.60
2022-08-29T07:09:15.396Z,51.20
2022-08-29T07:11:43.390Z,50.20
2022-08-29T07:14:11.138Z,50.20
2022-08-29T07:16:39.046Z,49.50
2022-08-29T07:19:08.079Z,49.20
2022-08-29T07:21:35.782Z,47.70
2022-08-29T07:24:03.261Z,47.80
2022-08-29T07:26:38.811Z,47.50
2022-08-29T07:29:11.774Z,47.40
2022-08-29T07:31:39.372Z,46.60
2022-08-29T07:34:06.755Z,46.00
2022-08-29T07:36:34.795Z,44.50
2022-08-29T07:39:04.229Z,45.40
2022-08-29T07:41:31.170Z,43.80
2022-08-29T07:43:58.106Z,42.60
2022-08-29T07:46:26.906Z,43.20
2022-08-29T07:48:54.386Z,42.90
2022-08-29T07:51:23.127Z,42.80
2022-08-29T07:53:51.058Z,43.00
2022-08-29T07:56:24.945Z,43.30
2022-08-29T07:58:52.222Z,42.80
2022-08-29T08:01:21.104Z,42.90
2022-08-29T08:03:50.902Z,42.40
2022-08-29T08:06:20.915Z,42.30
2022-08-29T08:08:48.675Z,41.10
2022-08-29T08:11:17.940Z,39.60
2022-08-29T08:13:45.428Z,39.60
2022-08-29T08:16:15.428Z,39.30
2022-08-29T08:18:43.695Z,39.40
2022-08-29T08:21:12.629Z,39.30
2022-08-29T08:23:40.358Z,38.90
2022-08-29T08:26:09.329Z,38.50
2022-08-29T08:28:36.767Z,38.30
2022-08-29T08:31:07.116Z,37.30
2022-08-29T08:33:39.022Z,36.90
2022-08-29T08:36:24.830Z,36.80
2022-08-29T08:38:53.454Z,36.80
2022-08-29T08:41:32.509Z,38.30
2022-08-29T08:44:15.408Z,37.50
2022-08-29T08:46:49.352Z,37.00
2022-08-29T08:49:46.798Z,37.00
2022-08-29T08:52:19.144Z,36.30
2022-08-29T08:55:01.829Z,36.90
2022-08-29T08:57:44.708Z,36.50
2022-08-29T09:00:13.244Z,36.90
2022-08-29T09:03:04.715Z,37.50
2022-08-29T09:05:58.834Z,36.30
2022-08-29T09:09:05.429Z,36.50
2022-08-29T09:11:49.596Z,36.90
2022-08-29T09:14:37.860Z,37.10
2022-08-29T09:17:07.450Z,35.90
2022-08-29T09:19:34.607Z,35.80
2022-08-29T09:22:11.027Z,36.10
2022-08-29T09:24:55.283Z,36.10
2022-08-29T09:27:29.718Z,36.00
2022-08-29T09:30:09.988Z,34.70
2022-08-29T09:32:56.156Z,35.70
2022-08-29T09:35:42.355Z,35.60
2022-08-29T09:38:18.350Z,36.10
2022-08-29T09:40:49.816Z,36.30
2022-08-29T09:43:18.446Z,36.40
2022-08-29T09:46:08.297Z,36.30
2022-08-29T09:48:37.718Z,35.60
2022-08-29T09:51:11.362Z,35.00
2022-08-29T09:53:38.594Z,34.20
2022-08-29T09:56:09.160Z,34.10
2022-08-29T09:58:40.526Z,33.80
2022-08-29T10:01:12.019Z,33.20
2022-08-29T10:03:44.301Z,33.50
2022-08-29T10:06:21.052Z,34.10
2022-08-29T10:09:01.863Z,34.10
2022-08-29T10:11:56.512Z,34.10
2022-08-29T10:14:35.980Z,34.40
2022-08-29T10:17:55.875Z,33.80
2022-08-29T10:20:28.738Z,34.10
2022-08-29T10:23:06.570Z,33.60
2022-08-29T10:25:41.355Z,33.30
2022-08-29T10:28:27.064Z,33.80
2022-08-29T10:31:05.294Z,34.10
2022-08-29T10:34:03.877Z,33.90
2022-08-29T10:36:38.255Z,33.70
2022-08-29T10:39:25.041Z,33.60
2022-08-29T10:42:08.216Z,33.50
2022-08-29T10:45:14.498Z,33.20
2022-08-29T10:47:50.431Z,33.90
2022-08-29T10:50:44.083Z,33.50
2022-08-29T10:53:41.831Z,33.00
2022-08-29T10:56:30.428Z,33.00
2022-08-29T10:59:24.243Z,33.30
2022-08-29T11:02:19.139Z,33.80
2022-08-29T11:04:50.791Z,34.00
2022-08-29T11:07:48.780Z,33.80
2022-08-29T11:10:24.930Z,33.40
2022-08-29T11:13:17.486Z,33.20
2022-08-29T11:16:02.853Z,32.90
2022-08-29T11:18:33.556Z,32.70
2022-08-29T11:21:25.235Z,32.90
2022-08-29T11:23:55.954Z,33.50
2022-08-29T11:26:22.824Z,34.00
2022-08-29T11:29:13.355Z,34.30
2022-08-29T11:32:11.318Z,33.80
2022-08-29T11:34:49.866Z,33.20
2022-08-29T11:37:33.549Z,33.20
2022-08-29T11:40:47.271Z,33.80
2022-08-29T11:43:12.105Z,33.50
2022-08-29T11:45:42.959Z,34.50
2022-08-29T11:48:34.735Z,35.10
2022-08-29T11:51:36.245Z,34.90
2022-08-29T11:54:39.658Z,34.80
2022-08-29T11:57:09.285Z,34.50
2022-08-29T11:59:48.707Z,35.00
2022-08-29T12:02:30.823Z,35.00
2022-08-29T12:05:32.909Z,34.30
2022-08-29T12:08:36.053Z,35.00
2022-08-29T12:11:05.090Z,34.60
2022-08-29T12:13:44.139Z,34.70
2022-08-29T12:16:13.690Z,34.00
2022-08-29T12:18:53.574Z,33.90
2022-08-29T12:21:44.478Z,34.20
2022-08-29T12:24:39.450Z,34.90
2022-08-29T12:27:22.391Z,35.50
2022-08-29T12:29:53.450Z,35.20
2022-08-29T12:32:31.523Z,35.40
2022-08-29T12:35:27.430Z,35.10
2022-08-29T12:38:22.941Z,34.90
2022-08-29T12:41:08.341Z,35.30
2022-08-29T12:43:37.005Z,35.60
2022-08-29T12:46:14.163Z,35.60
2022-08-29T12:48:57.822Z,36.10
2022-08-29T12:51:40.161Z,35.30
2022-08-29T12:54:09.185Z,35.40
2022-08-29T12:56:42.509Z,36.00
2022-08-29T12:59:17.433Z,36.30
2022-08-29T13:01:47.513Z,36.50
2022-08-29T13:04:30.955Z,36.70
2022-08-29T13:07:05.824Z,36.40
2022-08-29T13:09:44.305Z,36.50
2022-08-29T13:12:20.472Z,36.60
2022-08-29T13:14:53.530Z,36.40
2022-08-29T13:17:24.458Z,36.20
2022-08-29T13:20:29.290Z,36.20
2022-08-29T13:23:12.867Z,36.30
2022-08-29T13:26:24.469Z,36.80
2022-08-29T13:28:55.025Z,37.30
2022-08-29T13:31:44.761Z,37.10
2022-08-29T13:34:18.190Z,37.30
2022-08-29T13:37:00.190Z,37.10
2022-08-29T13:39:35.097Z,37.10
2022-08-29T13:42:03.099Z,36.80
2022-08-29T13:44:49.548Z,36.90
2022-08-29T13:47:22.925Z,36.50
2022-08-29T13:49:52.681Z,36.50
2022-08-29T13:52:19.809Z,37.10
2022-08-29T13:54:46.655Z,37.10
2022-08-29T13:57:20.111Z,37.50
2022-08-29T13:59:47.841Z,37.60
2022-08-29T14:02:15.076Z,37.60
2022-08-29T14:04:48.126Z,37.70
2022-08-29T14:07:31.102Z,38.70
2022-08-29T14:09:58.763Z,38.20
2022-08-29T14:12:33.188Z,38.20
2022-08-29T14:15:06.789Z,37.90
2022-08-29T14:17:36.986Z,37.90
2022-08-29T14:20:07.009Z,37.90
2022-08-29T14:22:34.150Z,37.90
2022-08-29T14:25:01.750Z,37.50
2022-08-29T14:27:28.999Z,37.30
2022-08-29T14:29:56.786Z,37.30
2022-08-29T14:32:24.326Z,37.60
2022-08-29T14:34:54.127Z,37.60
2022-08-29T14:37:21.447Z,38.00
2022-08-29T14:39:50.360Z,37.90
2022-08-29T14:42:18.127Z,37.90
2022-08-29T14:44:45.048Z,37.90
2022-08-29T14:47:12.404Z,37.90
2022-08-29T14:49:39.473Z,37.90
2022-08-29T14:52:07.131Z,38.00
2022-08-29T14:54:34.674Z,38.00
2022-08-29T14:57:01.552Z,38.00
2022-08-29T14:59:28.488Z,37.90
2022-08-29T15:01:55.749Z,37.90
2022-08-29T15:04:35.528Z,38.00
2022-08-29T15:07:09.489Z,38.40
2022-08-29T15:09:37.026Z,38.60
2022-08-29T15:12:04.177Z,38.70
2022-08-29T15:14:31.927Z,38.70
2022-08-29T15:16:58.865Z,38.70
2022-08-29T15:22:13.283Z,38.70
2022-08-29T15:24:40.466Z,38.80
2022-08-29T15:27:08.149Z,39.00
2022-08-29T15:29:37.345Z,39.00
2022-08-29T15:32:05.015Z,39.20
2022-08-29T15:34:31.937Z,39.00
2022-08-29T15:36:59.926Z,38.90
2022-08-29T15:39:27.853Z,38.80
2022-08-29T15:41:55.593Z,38.80
2022-08-29T15:44:22.653Z,38.80
2022-08-29T15:46:50.754Z,38.90
2022-08-29T15:49:19.542Z,38.90
2022-08-29T15:51:46.719Z,39.10
2022-08-29T15:54:14.381Z,39.00
2022-08-29T15:56:41.660Z,39.30
2022-08-29T15:59:10.320Z,39.50
2022-08-29T16:01:41.130Z,39.60
2022-08-29T16:04:09.546Z,39.70
2022-08-29T16:06:36.808Z,39.80
2022-08-29T16:09:14.860Z,39.80
2022-08-29T16:11:48.289Z,40.00
2022-08-29T16:17:05.099Z,40.10
2022-08-29T16:19:32.401Z,40.20
2022-08-29T16:22:06.687Z,40.30
2022-08-29T16:24:35.110Z,40.40
2022-08-29T16:27:02.241Z,40.60
2022-08-29T16:29:29.043Z,40.70
2022-08-29T16:31:58.484Z,40.80
2022-08-29T16:34:29.172Z,41.00
2022-08-29T16:37:04.956Z,41.10
2022-08-29T16:39:31.837Z,41.50
2022-08-29T16:41:59.201Z,41.60
2022-08-29T16:44:26.326Z,41.90
2022-08-29T16:46:53.242Z,42.00
2022-08-29T16:49:20.138Z,42.00
2022-08-29T16:51:47.188Z,42.00
2022-08-29T16:54:20.441Z,42.20
2022-08-29T16:56:47.315Z,42.30
2022-08-29T16:59:14.532Z,42.20
2022-08-29T17:01:59.454Z,42.40
2022-08-29T17:04:29.940Z,42.50
2022-08-29T17:06:58.201Z,42.60
2022-08-29T17:09:25.988Z,42.70
2022-08-29T17:11:54.226Z,42.90
2022-08-29T17:14:26.500Z,43.00
2022-08-29T17:16:55.091Z,43.00
2022-08-29T17:19:23.540Z,43.20
2022-08-29T17:21:51.149Z,43.20
2022-08-29T17:24:18.708Z,43.30
2022-08-29T17:26:47.736Z,43.30
2022-08-29T17:29:15.447Z,43.40
2022-08-29T17:31:42.849Z,43.50
2022-08-29T17:34:10.301Z,43.70
2022-08-29T17:36:40.692Z,43.80
2022-08-29T17:42:18.957Z,44.00
2022-08-29T17:44:49.991Z,44.00
2022-08-29T17:47:17.207Z,44.20
2022-08-29T17:49:45.200Z,44.30
2022-08-29T17:52:12.259Z,44.50
2022-08-29T17:54:39.327Z,44.70
2022-08-29T17:57:06.820Z,44.80
2022-08-29T17:59:35.705Z,45.10
2022-08-29T18:02:05.256Z,45.30
2022-08-29T18:04:32.953Z,45.30
2022-08-29T18:06:59.926Z,45.50
2022-08-29T18:09:27.686Z,45.60
2022-08-29T18:11:55.657Z,45.90
2022-08-29T18:14:24.118Z,45.90
2022-08-29T18:16:52.409Z,46.10
2022-08-29T18:19:21.302Z,46.20
2022-08-29T18:21:49.230Z,46.40
2022-08-29T18:24:16.423Z,46.50
2022-08-29T18:26:46.093Z,46.60
2022-08-29T18:29:14.202Z,46.90
2022-08-29T18:31:42.496Z,47.00
2022-08-29T18:34:11.291Z,47.20
2022-08-29T18:36:40.459Z,47.50
2022-08-29T18:39:08.095Z,47.60
2022-08-29T18:41:35.321Z,47.60
2022-08-29T18:44:02.876Z,47.80
2022-08-29T18:46:30.578Z,48.00
2022-08-29T18:48:57.827Z,48.10
2022-08-29T18:51:26.320Z,48.30
2022-08-29T18:53:53.241Z,48.40
2022-08-29T18:56:20.641Z,49.30
2022-08-29T18:58:47.997Z,48.80
2022-08-29T19:01:27.895Z,49.00
2022-08-29T19:04:00.481Z,49.30
2022-08-29T19:06:28.284Z,49.50
2022-08-29T19:08:56.738Z,49.80
2022-08-29T19:11:25.264Z,49.70
2022-08-29T19:13:54.406Z,49.90
2022-08-29T19:16:22.234Z,50.20
2022-08-29T19:18:50.447Z,50.20
2022-08-29T19:21:17.456Z,50.40
2022-08-29T19:23:52.448Z,50.60
2022-08-29T19:26:29.652Z,50.50
2022-08-29T19:29:03.493Z,51.10
2022-08-29T19:31:31.087Z,50.50
2022-08-29T19:33:58.848Z,50.70
2022-08-29T19:36:26.566Z,50.80
2022-08-29T19:38:53.743Z,51.00
2022-08-29T19:41:20.930Z,51.30
2022-08-29T19:43:48.852Z,51.40
2022-08-29T19:46:20.836Z,51.30
2022-08-29T19:51:32.922Z,51.60
2022-08-29T19:54:03.224Z,51.70
2022-08-29T19:56:33.461Z,51.70
2022-08-29T19:59:00.838Z,52.00
2022-08-29T20:01:28.264Z,52.10
2022-08-29T20:03:55.885Z,52.30
2022-08-29T20:06:23.340Z,52.20
2022-08-29T20:08:50.506Z,52.30
2022-08-29T20:11:22.293Z,52.50
2022-08-29T20:13:50.795Z,52.40
2022-08-29T20:16:21.589Z,52.60
2022-08-29T20:18:50.080Z,52.70
2022-08-29T20:21:19.231Z,52.80
2022-08-29T20:23:49.648Z,52.90
2022-08-29T20:26:20.459Z,53.00
2022-08-29T20:28:49.133Z,53.10
2022-08-29T20:31:16.553Z,53.20
2022-08-29T20:33:44.943Z,53.20
2022-08-29T20:36:30.751Z,53.20
2022-08-29T20:38:57.706Z,53.30
2022-08-29T20:41:24.776Z,53.40
2022-08-29T20:43:51.964Z,53.40
2022-08-29T20:46:19.011Z,53.60
2022-08-29T20:48:46.608Z,54.30
2022-08-29T20:51:14.180Z,53.60
2022-08-29T20:53:41.973Z,53.60
2022-08-29T20:56:09.549Z,53.70
2022-08-29T20:58:36.720Z,53.70
2022-08-29T21:01:04.016Z,53.80
2022-08-29T21:03:49.648Z,53.90
2022-08-29T21:06:21.231Z,54.00
2022-08-29T21:08:48.870Z,54.00
2022-08-29T21:11:16.412Z,54.10
2022-08-29T21:13:43.658Z,54.20
2022-08-29T21:16:11.368Z,54.20
2022-08-29T21:18:38.952Z,54.30
2022-08-29T21:21:06.542Z,54.40
2022-08-29T21:23:34.371Z,54.40
2022-08-29T21:26:01.945Z,54.40
2022-08-29T21:28:32.985Z,54.50
2022-08-29T21:31:12.489Z,54.60
2022-08-29T21:33:45.421Z,54.70
2022-08-29T21:36:14.453Z,54.80
2022-08-29T21:38:41.598Z,54.70
2022-08-29T21:41:09.974Z,54.80
2022-08-29T21:43:37.457Z,54.90
2022-08-29T21:46:17.531Z,54.70
2022-08-29T21:48:44.871Z,54.90
2022-08-29T21:51:13.338Z,55.00
2022-08-29T21:53:41.611Z,55.00
2022-08-29T21:56:09.120Z,55.00
2022-08-29T21:58:36.053Z,55.00
2022-08-29T22:01:03.688Z,55.10
2022-08-29T22:03:31.225Z,55.10
2022-08-29T22:05:58.210Z,55.30
2022-08-29T22:08:26.088Z,55.30
2022-08-29T22:10:53.208Z,55.30
2022-08-29T22:13:20.084Z,55.50
2022-08-29T22:16:05.590Z,55.40
2022-08-29T22:18:32.889Z,55.30
2022-08-29T22:21:00.643Z,55.50
2022-08-29T22:23:28.743Z,55.60
2022-08-29T22:25:56.494Z,55.70
2022-08-29T22:28:23.490Z,55.90
2022-08-29T22:30:50.486Z,55.90
2022-08-29T22:33:17.669Z,56.60
2022-08-29T22:35:44.778Z,56.00
2022-08-29T22:38:11.841Z,56.00
2022-08-29T22:40:39.012Z,56.00
2022-08-29T22:43:06.658Z,56.00
2022-08-29T22:45:33.573Z,56.80
2022-08-29T22:48:00.611Z,56.20
2022-08-29T22:50:27.495Z,56.20
2022-08-29T22:52:59.340Z,56.30
2022-08-29T22:57:52.149Z,56.30
2022-08-29T23:00:24.679Z,56.20
2022-08-29T23:02:55.558Z,56.20
2022-08-29T23:05:24.327Z,56.20
2022-08-29T23:07:51.990Z,56.20
2022-08-29T23:10:22.003Z,56.30
2022-08-29T23:12:49.825Z,56.30
2022-08-29T23:15:18.480Z,56.20
2022-08-29T23:17:45.417Z,56.30
2022-08-29T23:20:14.893Z,56.20
2022-08-29T23:22:43.063Z,56.10
2022-08-29T23:25:12.242Z,56.30
2022-08-29T23:27:39.687Z,56.30
2022-08-29T23:30:10.707Z,56.30
2022-08-29T23:32:37.664Z,56.20
2022-08-29T23:35:06.239Z,56.30
2022-08-29T23:37:33.388Z,56.30
2022-08-29T23:40:01.459Z,56.30
2022-08-29T23:42:29.426Z,56.20
2022-08-29T23:44:57.541Z,56.30
2022-08-29T23:47:24.439Z,56.40
2022-08-29T23:49:51.403Z,56.40
2022-08-29T23:52:18.431Z,56.50
2022-08-29T23:54:45.355Z,56.50
2022-08-29T23:57:12.408Z,56.50
2022-08-29T23:59:57.955Z,56.50
